sensor_id;sensor_type;location;lat;lon;timestamp;P1;durP1;ratioP1;P2;durP2;ratioP2
7160;SDS011;3622;53.576;9.978;2022-08-19T00:02:04;14.03;;;11.60;;
7160;SDS011;3622;53.576;9.978;2022-08-19T00:04:31;18.37;;;12.10;;
7160;SDS011;3622;53.576;9.978;2022-08-19T00:06:57;15.87;;;12.83;;
7160;SDS011;3622;53.576;9.978;2022-08-19T00:09:24;18.37;;;11.77;;
7160;SDS011;3622;53.576;9.978;2022-08-19T00:11:51;19.80;;;12.90;;
7160;SDS011;3622;53.576;9.978;2022-08-19T00:14:17;21.17;;;12.70;;
7160;SDS011;3622;53.576;9.978;2022-08-19T00:16:44;17.70;;;13.23;;
7160;SDS011;3622;53.576;9.978;2022-08-19T00:19:11;22.70;;;13.93;;
7160;SDS011;3622;53.576;9.978;2022-08-19T00:21:37;51.70;;;34.37;;
7160;SDS011;3622;53.576;9.978;2022-08-19T00:24:05;22.37;;;15.17;;
7160;SDS011;3622;53.576;9.978;2022-08-19T00:26:31;33.20;;;17.40;;
7160;SDS011;3622;53.576;9.978;2022-08-19T00:28:57;31.83;;;19.43;;
7160;SDS011;3622;53.576;9.978;2022-08-19T00:31:23;25.27;;;17.77;;
7160;SDS011;3622;53.576;9.978;2022-08-19T00:33:50;29.27;;;18.27;;
7160;SDS011;3622;53.576;9.978;2022-08-19T00:36:16;30.57;;;18.60;;
7160;SDS011;3622;53.576;9.978;2022-08-19T00:38:42;31.90;;;19.07;;
7160;SDS011;3622;53.576;9.978;2022-08-19T00:41:09;29.80;;;19.40;;
7160;SDS011;3622;53.576;9.978;2022-08-19T00:43:35;37.70;;;20.67;;
7160;SDS011;3622;53.576;9.978;2022-08-19T00:46:01;33.80;;;20.73;;
7160;SDS011;3622;53.576;9.978;2022-08-19T00:48:29;34.90;;;20.70;;
7160;SDS011;3622;53.576;9.978;2022-08-19T00:50:56;32.83;;;20.70;;
7160;SDS011;3622;53.576;9.978;2022-08-19T00:53:23;38.00;;;21.63;;
7160;SDS011;3622;53.576;9.978;2022-08-19T00:55:51;37.70;;;22.20;;
7160;SDS011;3622;53.576;9.978;2022-08-19T00:58:19;37.87;;;21.60;;
7160;SDS011;3622;53.576;9.978;2022-08-19T01:00:46;45.70;;;28.47;;
7160;SDS011;3622;53.576;9.978;2022-08-19T01:03:14;44.50;;;24.03;;
7160;SDS011;3622;53.576;9.978;2022-08-19T01:05:41;42.37;;;22.40;;
7160;SDS011;3622;53.576;9.978;2022-08-19T01:08:07;39.13;;;22.50;;
7160;SDS011;3622;53.576;9.978;2022-08-19T01:10:36;40.50;;;20.27;;
7160;SDS011;3622;53.576;9.978;2022-08-19T01:13:02;36.43;;;20.53;;
7160;SDS011;3622;53.576;9.978;2022-08-19T01:15:30;33.37;;;19.90;;
7160;SDS011;3622;53.576;9.978;2022-08-19T01:17:57;30.10;;;19.40;;
7160;SDS011;3622;53.576;9.978;2022-08-19T01:20:25;37.77;;;22.33;;
7160;SDS011;3622;53.576;9.978;2022-08-19T01:22:58;31.13;;;18.97;;
7160;SDS011;3622;53.576;9.978;2022-08-19T01:25:26;30.47;;;18.73;;
7160;SDS011;3622;53.576;9.978;2022-08-19T01:27:53;29.47;;;18.17;;
7160;SDS011;3622;53.576;9.978;2022-08-19T01:30:22;30.97;;;18.90;;
7160;SDS011;3622;53.576;9.978;2022-08-19T01:32:49;27.43;;;16.40;;
7160;SDS011;3622;53.576;9.978;2022-08-19T01:35:15;32.20;;;20.60;;
7160;SDS011;3622;53.576;9.978;2022-08-19T01:40:09;25.67;;;17.80;;
7160;SDS011;3622;53.576;9.978;2022-08-19T01:42:35;28.63;;;17.77;;
7160;SDS011;3622;53.576;9.978;2022-08-19T01:45:02;28.50;;;17.80;;
7160;SDS011;3622;53.576;9.978;2022-08-19T01:47:28;24.53;;;16.40;;
7160;SDS011;3622;53.576;9.978;2022-08-19T01:49:54;31.70;;;22.20;;
7160;SDS011;3622;53.576;9.978;2022-08-19T01:52:20;25.40;;;16.23;;
7160;SDS011;3622;53.576;9.978;2022-08-19T01:54:46;30.70;;;18.63;;
7160;SDS011;3622;53.576;9.978;2022-08-19T01:57:12;31.23;;;18.20;;
7160;SDS011;3622;53.576;9.978;2022-08-19T01:59:39;28.67;;;17.80;;
7160;SDS011;3622;53.576;9.978;2022-08-19T02:02:06;29.80;;;17.90;;
7160;SDS011;3622;53.576;9.978;2022-08-19T02:04:33;30.13;;;17.73;;
7160;SDS011;3622;53.576;9.978;2022-08-19T02:06:59;28.37;;;17.10;;
7160;SDS011;3622;53.576;9.978;2022-08-19T02:09:25;35.20;;;18.53;;
7160;SDS011;3622;53.576;9.978;2022-08-19T02:11:51;29.53;;;17.60;;
7160;SDS011;3622;53.576;9.978;2022-08-19T02:14:18;31.10;;;18.40;;
7160;SDS011;3622;53.576;9.978;2022-08-19T02:16:44;31.83;;;17.70;;
7160;SDS011;3622;53.576;9.978;2022-08-19T02:19:10;33.87;;;17.70;;
7160;SDS011;3622;53.576;9.978;2022-08-19T02:21:36;32.90;;;18.90;;
7160;SDS011;3622;53.576;9.978;2022-08-19T02:24:02;28.97;;;17.63;;
7160;SDS011;3622;53.576;9.978;2022-08-19T02:26:28;35.63;;;19.30;;
7160;SDS011;3622;53.576;9.978;2022-08-19T02:28:55;29.73;;;17.27;;
7160;SDS011;3622;53.576;9.978;2022-08-19T02:31:22;32.53;;;18.97;;
7160;SDS011;3622;53.576;9.978;2022-08-19T02:33:48;33.90;;;18.17;;
7160;SDS011;3622;53.576;9.978;2022-08-19T02:36:15;33.40;;;18.40;;
7160;SDS011;3622;53.576;9.978;2022-08-19T02:38:44;32.47;;;17.90;;
7160;SDS011;3622;53.576;9.978;2022-08-19T02:41:18;31.90;;;18.10;;
7160;SDS011;3622;53.576;9.978;2022-08-19T02:43:44;34.23;;;18.20;;
7160;SDS011;3622;53.576;9.978;2022-08-19T02:46:15;36.67;;;19.10;;
7160;SDS011;3622;53.576;9.978;2022-08-19T02:48:42;36.00;;;19.07;;
7160;SDS011;3622;53.576;9.978;2022-08-19T02:51:08;34.23;;;19.17;;
7160;SDS011;3622;53.576;9.978;2022-08-19T02:53:40;40.90;;;19.70;;
7160;SDS011;3622;53.576;9.978;2022-08-19T02:56:07;35.73;;;18.30;;
7160;SDS011;3622;53.576;9.978;2022-08-19T02:58:33;34.60;;;19.60;;
7160;SDS011;3622;53.576;9.978;2022-08-19T03:00:59;37.20;;;19.17;;
7160;SDS011;3622;53.576;9.978;2022-08-19T03:03:25;41.60;;;19.13;;
7160;SDS011;3622;53.576;9.978;2022-08-19T03:05:51;39.10;;;20.10;;
7160;SDS011;3622;53.576;9.978;2022-08-19T03:08:18;33.53;;;17.90;;
7160;SDS011;3622;53.576;9.978;2022-08-19T03:10:45;45.80;;;21.20;;
7160;SDS011;3622;53.576;9.978;2022-08-19T03:13:15;42.57;;;20.20;;
7160;SDS011;3622;53.576;9.978;2022-08-19T03:15:42;49.40;;;21.27;;
7160;SDS011;3622;53.576;9.978;2022-08-19T03:18:08;43.90;;;20.97;;
7160;SDS011;3622;53.576;9.978;2022-08-19T03:20:39;52.13;;;22.60;;
7160;SDS011;3622;53.576;9.978;2022-08-19T03:23:05;52.20;;;23.17;;
7160;SDS011;3622;53.576;9.978;2022-08-19T03:25:35;54.63;;;23.20;;
7160;SDS011;3622;53.576;9.978;2022-08-19T03:28:02;59.93;;;22.30;;
7160;SDS011;3622;53.576;9.978;2022-08-19T03:30:28;51.47;;;23.57;;
7160;SDS011;3622;53.576;9.978;2022-08-19T03:32:54;52.70;;;22.37;;
7160;SDS011;3622;53.576;9.978;2022-08-19T03:35:20;48.13;;;21.37;;
7160;SDS011;3622;53.576;9.978;2022-08-19T03:37:46;47.63;;;21.63;;
7160;SDS011;3622;53.576;9.978;2022-08-19T03:40:12;40.33;;;18.53;;
7160;SDS011;3622;53.576;9.978;2022-08-19T03:42:38;40.40;;;19.50;;
7160;SDS011;3622;53.576;9.978;2022-08-19T03:45:07;36.77;;;18.73;;
7160;SDS011;3622;53.576;9.978;2022-08-19T03:47:35;39.00;;;19.07;;
7160;SDS011;3622;53.576;9.978;2022-08-19T03:50:02;40.00;;;18.00;;
7160;SDS011;3622;53.576;9.978;2022-08-19T03:52:28;41.50;;;19.17;;
7160;SDS011;3622;53.576;9.978;2022-08-19T03:54:54;38.50;;;19.00;;
7160;SDS011;3622;53.576;9.978;2022-08-19T03:57:20;31.33;;;16.57;;
7160;SDS011;3622;53.576;9.978;2022-08-19T03:59:46;39.20;;;17.17;;
7160;SDS011;3622;53.576;9.978;2022-08-19T04:02:12;35.27;;;16.63;;
7160;SDS011;3622;53.576;9.978;2022-08-19T04:04:39;42.37;;;18.53;;
7160;SDS011;3622;53.576;9.978;2022-08-19T04:07:05;37.57;;;17.93;;
7160;SDS011;3622;53.576;9.978;2022-08-19T04:09:33;37.87;;;19.60;;
7160;SDS011;3622;53.576;9.978;2022-08-19T04:12:01;39.73;;;19.73;;
7160;SDS011;3622;53.576;9.978;2022-08-19T04:14:29;45.30;;;19.73;;
7160;SDS011;3622;53.576;9.978;2022-08-19T04:16:55;42.43;;;20.10;;
7160;SDS011;3622;53.576;9.978;2022-08-19T04:19:22;49.70;;;22.13;;
7160;SDS011;3622;53.576;9.978;2022-08-19T04:21:49;45.90;;;21.70;;
7160;SDS011;3622;53.576;9.978;2022-08-19T04:24:15;49.67;;;23.50;;
7160;SDS011;3622;53.576;9.978;2022-08-19T04:26:42;52.73;;;23.10;;
7160;SDS011;3622;53.576;9.978;2022-08-19T04:29:09;51.07;;;23.30;;
7160;SDS011;3622;53.576;9.978;2022-08-19T04:31:35;52.37;;;22.97;;
7160;SDS011;3622;53.576;9.978;2022-08-19T04:34:03;50.27;;;24.10;;
7160;SDS011;3622;53.576;9.978;2022-08-19T04:36:31;47.70;;;22.53;;
7160;SDS011;3622;53.576;9.978;2022-08-19T04:38:58;54.57;;;24.57;;
7160;SDS011;3622;53.576;9.978;2022-08-19T04:41:25;57.27;;;24.93;;
7160;SDS011;3622;53.576;9.978;2022-08-19T04:44:10;56.23;;;24.50;;
7160;SDS011;3622;53.576;9.978;2022-08-19T04:46:36;52.13;;;22.90;;
7160;SDS011;3622;53.576;9.978;2022-08-19T04:49:03;51.23;;;24.10;;
7160;SDS011;3622;53.576;9.978;2022-08-19T04:51:30;50.77;;;24.03;;
7160;SDS011;3622;53.576;9.978;2022-08-19T04:53:56;71.13;;;25.13;;
7160;SDS011;3622;53.576;9.978;2022-08-19T04:56:22;58.10;;;24.90;;
7160;SDS011;3622;53.576;9.978;2022-08-19T04:58:52;50.03;;;24.17;;
7160;SDS011;3622;53.576;9.978;2022-08-19T05:01:19;51.70;;;24.50;;
7160;SDS011;3622;53.576;9.978;2022-08-19T05:03:45;55.80;;;23.20;;
7160;SDS011;3622;53.576;9.978;2022-08-19T05:06:12;50.43;;;23.60;;
7160;SDS011;3622;53.576;9.978;2022-08-19T05:08:39;46.10;;;23.90;;
7160;SDS011;3622;53.576;9.978;2022-08-19T05:11:10;44.87;;;22.27;;
7160;SDS011;3622;53.576;9.978;2022-08-19T05:13:37;46.43;;;22.80;;
7160;SDS011;3622;53.576;9.978;2022-08-19T05:16:03;44.37;;;22.50;;
7160;SDS011;3622;53.576;9.978;2022-08-19T05:18:29;37.23;;;20.83;;
7160;SDS011;3622;53.576;9.978;2022-08-19T05:21:15;44.77;;;21.27;;
7160;SDS011;3622;53.576;9.978;2022-08-19T05:24:00;35.30;;;19.17;;
7160;SDS011;3622;53.576;9.978;2022-08-19T05:26:27;39.43;;;19.30;;
7160;SDS011;3622;53.576;9.978;2022-08-19T05:28:54;45.43;;;20.53;;
7160;SDS011;3622;53.576;9.978;2022-08-19T05:31:20;38.70;;;19.47;;
7160;SDS011;3622;53.576;9.978;2022-08-19T05:33:46;44.77;;;18.97;;
7160;SDS011;3622;53.576;9.978;2022-08-19T05:36:12;35.40;;;20.23;;
7160;SDS011;3622;53.576;9.978;2022-08-19T05:38:39;30.63;;;19.10;;
7160;SDS011;3622;53.576;9.978;2022-08-19T05:41:08;39.60;;;20.90;;
7160;SDS011;3622;53.576;9.978;2022-08-19T05:43:34;36.47;;;18.13;;
7160;SDS011;3622;53.576;9.978;2022-08-19T05:46:01;36.60;;;18.30;;
7160;SDS011;3622;53.576;9.978;2022-08-19T05:48:27;40.13;;;19.70;;
7160;SDS011;3622;53.576;9.978;2022-08-19T05:50:53;38.37;;;20.60;;
7160;SDS011;3622;53.576;9.978;2022-08-19T05:53:19;43.77;;;20.37;;
7160;SDS011;3622;53.576;9.978;2022-08-19T05:55:45;43.80;;;21.33;;
7160;SDS011;3622;53.576;9.978;2022-08-19T05:58:11;39.77;;;20.90;;
7160;SDS011;3622;53.576;9.978;2022-08-19T06:00:37;36.33;;;19.70;;
7160;SDS011;3622;53.576;9.978;2022-08-19T06:03:04;28.43;;;17.50;;
7160;SDS011;3622;53.576;9.978;2022-08-19T06:05:30;35.00;;;19.27;;
7160;SDS011;3622;53.576;9.978;2022-08-19T06:07:56;32.10;;;18.67;;
7160;SDS011;3622;53.576;9.978;2022-08-19T06:10:23;44.70;;;21.10;;
7160;SDS011;3622;53.576;9.978;2022-08-19T06:12:51;42.80;;;21.70;;
7160;SDS011;3622;53.576;9.978;2022-08-19T06:15:17;39.70;;;21.63;;
7160;SDS011;3622;53.576;9.978;2022-08-19T06:17:43;39.80;;;21.23;;
7160;SDS011;3622;53.576;9.978;2022-08-19T06:20:13;45.80;;;20.60;;
7160;SDS011;3622;53.576;9.978;2022-08-19T06:22:44;42.23;;;22.03;;
7160;SDS011;3622;53.576;9.978;2022-08-19T06:25:11;50.83;;;23.97;;
7160;SDS011;3622;53.576;9.978;2022-08-19T06:27:37;41.43;;;21.80;;
7160;SDS011;3622;53.576;9.978;2022-08-19T06:30:03;49.97;;;22.50;;
7160;SDS011;3622;53.576;9.978;2022-08-19T06:32:31;45.07;;;21.23;;
7160;SDS011;3622;53.576;9.978;2022-08-19T06:34:57;58.60;;;25.67;;
7160;SDS011;3622;53.576;9.978;2022-08-19T06:37:23;55.90;;;25.63;;
7160;SDS011;3622;53.576;9.978;2022-08-19T06:39:49;42.97;;;21.30;;
7160;SDS011;3622;53.576;9.978;2022-08-19T06:42:15;45.53;;;22.50;;
7160;SDS011;3622;53.576;9.978;2022-08-19T06:44:43;48.20;;;22.60;;
7160;SDS011;3622;53.576;9.978;2022-08-19T06:47:11;45.87;;;21.13;;
7160;SDS011;3622;53.576;9.978;2022-08-19T06:49:37;47.47;;;22.30;;
7160;SDS011;3622;53.576;9.978;2022-08-19T06:52:04;40.77;;;20.67;;
7160;SDS011;3622;53.576;9.978;2022-08-19T06:54:30;52.47;;;23.43;;
7160;SDS011;3622;53.576;9.978;2022-08-19T06:56:59;39.37;;;19.30;;
7160;SDS011;3622;53.576;9.978;2022-08-19T06:59:27;46.00;;;20.77;;
7160;SDS011;3622;53.576;9.978;2022-08-19T07:01:54;43.07;;;20.57;;
7160;SDS011;3622;53.576;9.978;2022-08-19T07:04:21;37.50;;;19.67;;
7160;SDS011;3622;53.576;9.978;2022-08-19T07:06:48;35.83;;;18.10;;
7160;SDS011;3622;53.576;9.978;2022-08-19T07:09:15;34.23;;;17.93;;
7160;SDS011;3622;53.576;9.978;2022-08-19T07:11:45;37.10;;;18.50;;
7160;SDS011;3622;53.576;9.978;2022-08-19T07:14:12;34.00;;;18.03;;
7160;SDS011;3622;53.576;9.978;2022-08-19T07:16:39;36.77;;;16.93;;
7160;SDS011;3622;53.576;9.978;2022-08-19T07:19:05;26.57;;;15.40;;
7160;SDS011;3622;53.576;9.978;2022-08-19T07:21:32;32.40;;;16.93;;
7160;SDS011;3622;53.576;9.978;2022-08-19T07:23:58;31.07;;;14.90;;
7160;SDS011;3622;53.576;9.978;2022-08-19T07:26:27;26.13;;;15.47;;
7160;SDS011;3622;53.576;9.978;2022-08-19T07:28:54;19.70;;;14.70;;
7160;SDS011;3622;53.576;9.978;2022-08-19T07:31:21;24.30;;;13.20;;
7160;SDS011;3622;53.576;9.978;2022-08-19T07:33:48;21.73;;;12.70;;
7160;SDS011;3622;53.576;9.978;2022-08-19T07:36:15;22.73;;;12.20;;
7160;SDS011;3622;53.576;9.978;2022-08-19T07:38:43;15.67;;;11.90;;
7160;SDS011;3622;53.576;9.978;2022-08-19T07:41:11;19.30;;;12.37;;
7160;SDS011;3622;53.576;9.978;2022-08-19T07:43:38;19.60;;;11.83;;
7160;SDS011;3622;53.576;9.978;2022-08-19T07:46:04;16.57;;;10.80;;
7160;SDS011;3622;53.576;9.978;2022-08-19T07:48:30;20.03;;;11.97;;
7160;SDS011;3622;53.576;9.978;2022-08-19T07:51:00;20.57;;;11.33;;
7160;SDS011;3622;53.576;9.978;2022-08-19T07:53:28;15.97;;;10.83;;
7160;SDS011;3622;53.576;9.978;2022-08-19T07:55:54;17.40;;;10.90;;
7160;SDS011;3622;53.576;9.978;2022-08-19T07:58:21;11.10;;;9.90;;
7160;SDS011;3622;53.576;9.978;2022-08-19T08:00:48;11.97;;;9.23;;
7160;SDS011;3622;53.576;9.978;2022-08-19T08:03:15;12.63;;;9.70;;
7160;SDS011;3622;53.576;9.978;2022-08-19T08:05:42;10.43;;;9.20;;
7160;SDS011;3622;53.576;9.978;2022-08-19T08:08:27;19.43;;;9.90;;
7160;SDS011;3622;53.576;9.978;2022-08-19T08:10:56;15.43;;;10.70;;
7160;SDS011;3622;53.576;9.978;2022-08-19T08:13:22;19.27;;;10.67;;
7160;SDS011;3622;53.576;9.978;2022-08-19T08:15:48;16.17;;;10.90;;
7160;SDS011;3622;53.576;9.978;2022-08-19T08:18:14;26.00;;;13.00;;
7160;SDS011;3622;53.576;9.978;2022-08-19T08:20:40;17.23;;;10.80;;
7160;SDS011;3622;53.576;9.978;2022-08-19T08:23:06;15.60;;;10.60;;
7160;SDS011;3622;53.576;9.978;2022-08-19T08:25:50;17.03;;;11.23;;
7160;SDS011;3622;53.576;9.978;2022-08-19T08:28:16;14.77;;;10.47;;
7160;SDS011;3622;53.576;9.978;2022-08-19T08:30:43;16.70;;;11.47;;
7160;SDS011;3622;53.576;9.978;2022-08-19T08:33:10;19.00;;;11.70;;
7160;SDS011;3622;53.576;9.978;2022-08-19T08:35:36;21.50;;;12.20;;
7160;SDS011;3622;53.576;9.978;2022-08-19T08:38:03;24.80;;;13.83;;
7160;SDS011;3622;53.576;9.978;2022-08-19T08:40:37;30.23;;;18.20;;
7160;SDS011;3622;53.576;9.978;2022-08-19T08:43:46;31.97;;;15.60;;
7160;SDS011;3622;53.576;9.978;2022-08-19T08:45:55;25.83;;;15.13;;
7160;SDS011;3622;53.576;9.978;2022-08-19T08:48:29;28.07;;;15.00;;
7160;SDS011;3622;53.576;9.978;2022-08-19T08:50:57;26.17;;;14.60;;
7160;SDS011;3622;53.576;9.978;2022-08-19T08:53:25;27.77;;;13.90;;
7160;SDS011;3622;53.576;9.978;2022-08-19T08:55:52;28.50;;;16.43;;
7160;SDS011;3622;53.576;9.978;2022-08-19T08:58:26;30.17;;;15.83;;
7160;SDS011;3622;53.576;9.978;2022-08-19T09:00:54;23.20;;;14.20;;
7160;SDS011;3622;53.576;9.978;2022-08-19T09:03:21;29.03;;;16.17;;
7160;SDS011;3622;53.576;9.978;2022-08-19T09:10:55;44.53;;;16.30;;
7160;SDS011;3622;53.576;9.978;2022-08-19T09:16:19;22.40;;;14.13;;
7160;SDS011;3622;53.576;9.978;2022-08-19T09:18:49;22.33;;;15.00;;
7160;SDS011;3622;53.576;9.978;2022-08-19T09:21:18;25.90;;;15.50;;
7160;SDS011;3622;53.576;9.978;2022-08-19T09:23:45;24.07;;;13.73;;
7160;SDS011;3622;53.576;9.978;2022-08-19T09:26:13;22.53;;;12.50;;
7160;SDS011;3622;53.576;9.978;2022-08-19T09:28:40;25.00;;;14.47;;
7160;SDS011;3622;53.576;9.978;2022-08-19T09:31:09;30.10;;;14.27;;
7160;SDS011;3622;53.576;9.978;2022-08-19T09:33:35;20.30;;;13.23;;
7160;SDS011;3622;53.576;9.978;2022-08-19T09:36:05;25.20;;;12.97;;
7160;SDS011;3622;53.576;9.978;2022-08-19T09:38:32;26.40;;;12.33;;
7160;SDS011;3622;53.576;9.978;2022-08-19T09:41:02;17.53;;;11.87;;
7160;SDS011;3622;53.576;9.978;2022-08-19T09:43:29;24.57;;;13.70;;
7160;SDS011;3622;53.576;9.978;2022-08-19T09:45:55;20.90;;;13.53;;
7160;SDS011;3622;53.576;9.978;2022-08-19T09:48:21;29.00;;;13.23;;
7160;SDS011;3622;53.576;9.978;2022-08-19T09:50:47;19.90;;;13.30;;
7160;SDS011;3622;53.576;9.978;2022-08-19T09:53:16;23.53;;;13.80;;
7160;SDS011;3622;53.576;9.978;2022-08-19T09:55:42;21.80;;;12.03;;
7160;SDS011;3622;53.576;9.978;2022-08-19T09:58:08;22.23;;;13.40;;
7160;SDS011;3622;53.576;9.978;2022-08-19T10:00:36;26.03;;;12.50;;
7160;SDS011;3622;53.576;9.978;2022-08-19T10:03:02;28.80;;;13.00;;
7160;SDS011;3622;53.576;9.978;2022-08-19T10:05:28;24.97;;;15.97;;
7160;SDS011;3622;53.576;9.978;2022-08-19T10:08:13;24.37;;;14.27;;
7160;SDS011;3622;53.576;9.978;2022-08-19T10:10:42;21.07;;;13.93;;
7160;SDS011;3622;53.576;9.978;2022-08-19T10:13:09;21.07;;;14.13;;
7160;SDS011;3622;53.576;9.978;2022-08-19T10:15:35;20.57;;;13.43;;
7160;SDS011;3622;53.576;9.978;2022-08-19T10:18:04;21.20;;;15.13;;
7160;SDS011;3622;53.576;9.978;2022-08-19T10:20:30;24.60;;;14.90;;
7160;SDS011;3622;53.576;9.978;2022-08-19T10:22:56;29.00;;;15.17;;
7160;SDS011;3622;53.576;9.978;2022-08-19T10:25:24;32.43;;;16.97;;
7160;SDS011;3622;53.576;9.978;2022-08-19T10:27:51;26.53;;;16.20;;
7160;SDS011;3622;53.576;9.978;2022-08-19T10:30:17;24.60;;;15.30;;
7160;SDS011;3622;53.576;9.978;2022-08-19T10:32:43;23.93;;;15.13;;
7160;SDS011;3622;53.576;9.978;2022-08-19T10:35:10;22.27;;;14.27;;
7160;SDS011;3622;53.576;9.978;2022-08-19T10:37:37;24.83;;;15.10;;
7160;SDS011;3622;53.576;9.978;2022-08-19T10:40:04;30.47;;;15.20;;
7160;SDS011;3622;53.576;9.978;2022-08-19T10:42:31;24.83;;;15.97;;
7160;SDS011;3622;53.576;9.978;2022-08-19T10:44:57;26.50;;;15.37;;
7160;SDS011;3622;53.576;9.978;2022-08-19T10:47:23;27.77;;;15.50;;
7160;SDS011;3622;53.576;9.978;2022-08-19T10:49:49;24.07;;;15.63;;
7160;SDS011;3622;53.576;9.978;2022-08-19T10:52:34;24.57;;;16.47;;
7160;SDS011;3622;53.576;9.978;2022-08-19T10:55:01;24.73;;;15.73;;
7160;SDS011;3622;53.576;9.978;2022-08-19T10:57:46;30.00;;;18.93;;
7160;SDS011;3622;53.576;9.978;2022-08-19T11:00:12;28.47;;;16.30;;
7160;SDS011;3622;53.576;9.978;2022-08-19T11:02:38;28.10;;;17.10;;
7160;SDS011;3622;53.576;9.978;2022-08-19T11:05:04;27.57;;;16.40;;
7160;SDS011;3622;53.576;9.978;2022-08-19T11:07:31;25.50;;;16.10;;
7160;SDS011;3622;53.576;9.978;2022-08-19T11:09:57;26.23;;;16.77;;
7160;SDS011;3622;53.576;9.978;2022-08-19T11:12:23;26.50;;;16.07;;
7160;SDS011;3622;53.576;9.978;2022-08-19T11:14:50;26.93;;;15.60;;
7160;SDS011;3622;53.576;9.978;2022-08-19T11:17:16;24.50;;;15.40;;
7160;SDS011;3622;53.576;9.978;2022-08-19T11:19:42;24.30;;;15.40;;
7160;SDS011;3622;53.576;9.978;2022-08-19T11:22:08;30.10;;;17.23;;
7160;SDS011;3622;53.576;9.978;2022-08-19T11:24:34;28.53;;;17.10;;
7160;SDS011;3622;53.576;9.978;2022-08-19T11:27:06;26.10;;;17.03;;
7160;SDS011;3622;53.576;9.978;2022-08-19T11:29:34;21.37;;;14.40;;
7160;SDS011;3622;53.576;9.978;2022-08-19T11:32:03;25.97;;;15.43;;
7160;SDS011;3622;53.576;9.978;2022-08-19T11:34:29;18.27;;;13.50;;
7160;SDS011;3622;53.576;9.978;2022-08-19T11:36:56;23.70;;;15.10;;
7160;SDS011;3622;53.576;9.978;2022-08-19T11:39:26;24.90;;;16.73;;
7160;SDS011;3622;53.576;9.978;2022-08-19T11:41:52;21.00;;;13.93;;
7160;SDS011;3622;53.576;9.978;2022-08-19T11:44:18;24.50;;;13.90;;
7160;SDS011;3622;53.576;9.978;2022-08-19T11:46:44;22.10;;;14.77;;
7160;SDS011;3622;53.576;9.978;2022-08-19T11:49:12;19.40;;;13.27;;
7160;SDS011;3622;53.576;9.978;2022-08-19T11:51:38;19.20;;;13.93;;
7160;SDS011;3622;53.576;9.978;2022-08-19T11:54:05;20.30;;;13.80;;
7160;SDS011;3622;53.576;9.978;2022-08-19T11:56:31;20.33;;;13.23;;
7160;SDS011;3622;53.576;9.978;2022-08-19T11:58:57;22.63;;;15.90;;
7160;SDS011;3622;53.576;9.978;2022-08-19T12:01:25;19.63;;;13.80;;
7160;SDS011;3622;53.576;9.978;2022-08-19T12:03:52;19.20;;;13.97;;
7160;SDS011;3622;53.576;9.978;2022-08-19T12:06:20;21.10;;;13.47;;
7160;SDS011;3622;53.576;9.978;2022-08-19T12:08:48;18.40;;;12.90;;
7160;SDS011;3622;53.576;9.978;2022-08-19T12:11:15;21.37;;;12.90;;
7160;SDS011;3622;53.576;9.978;2022-08-19T12:13:41;23.90;;;16.00;;
7160;SDS011;3622;53.576;9.978;2022-08-19T12:16:11;17.10;;;12.63;;
7160;SDS011;3622;53.576;9.978;2022-08-19T12:18:38;29.10;;;16.57;;
7160;SDS011;3622;53.576;9.978;2022-08-19T12:21:06;21.07;;;14.30;;
7160;SDS011;3622;53.576;9.978;2022-08-19T12:23:32;17.73;;;12.77;;
7160;SDS011;3622;53.576;9.978;2022-08-19T12:25:58;20.53;;;13.10;;
7160;SDS011;3622;53.576;9.978;2022-08-19T12:28:25;16.27;;;13.10;;
7160;SDS011;3622;53.576;9.978;2022-08-19T12:30:51;21.90;;;12.87;;
7160;SDS011;3622;53.576;9.978;2022-08-19T12:33:18;20.90;;;12.93;;
7160;SDS011;3622;53.576;9.978;2022-08-19T12:35:45;16.80;;;13.00;;
7160;SDS011;3622;53.576;9.978;2022-08-19T12:38:11;21.00;;;13.40;;
7160;SDS011;3622;53.576;9.978;2022-08-19T12:40:37;22.20;;;13.47;;
7160;SDS011;3622;53.576;9.978;2022-08-19T12:43:05;18.60;;;13.20;;
7160;SDS011;3622;53.576;9.978;2022-08-19T12:45:31;14.83;;;12.47;;
7160;SDS011;3622;53.576;9.978;2022-08-19T12:47:57;17.90;;;13.00;;
7160;SDS011;3622;53.576;9.978;2022-08-19T12:50:23;19.57;;;16.13;;
7160;SDS011;3622;53.576;9.978;2022-08-19T12:52:49;13.43;;;11.93;;
7160;SDS011;3622;53.576;9.978;2022-08-19T12:55:15;28.43;;;13.70;;
7160;SDS011;3622;53.576;9.978;2022-08-19T12:57:43;15.60;;;13.30;;
7160;SDS011;3622;53.576;9.978;2022-08-19T13:00:10;19.27;;;12.90;;
7160;SDS011;3622;53.576;9.978;2022-08-19T13:02:38;14.80;;;12.40;;
7160;SDS011;3622;53.576;9.978;2022-08-19T13:05:06;14.47;;;11.80;;
7160;SDS011;3622;53.576;9.978;2022-08-19T13:07:33;15.47;;;12.70;;
7160;SDS011;3622;53.576;9.978;2022-08-19T13:09:59;16.07;;;11.83;;
7160;SDS011;3622;53.576;9.978;2022-08-19T13:12:25;14.17;;;11.70;;
7160;SDS011;3622;53.576;9.978;2022-08-19T13:14:52;15.17;;;12.67;;
7160;SDS011;3622;53.576;9.978;2022-08-19T13:17:18;14.20;;;12.27;;
7160;SDS011;3622;53.576;9.978;2022-08-19T13:19:44;13.63;;;12.13;;
7160;SDS011;3622;53.576;9.978;2022-08-19T13:22:10;15.27;;;12.30;;
7160;SDS011;3622;53.576;9.978;2022-08-19T13:24:37;13.00;;;11.60;;
7160;SDS011;3622;53.576;9.978;2022-08-19T13:27:03;13.20;;;11.33;;
7160;SDS011;3622;53.576;9.978;2022-08-19T13:29:29;12.70;;;11.17;;
7160;SDS011;3622;53.576;9.978;2022-08-19T13:32:14;22.43;;;12.80;;
7160;SDS011;3622;53.576;9.978;2022-08-19T13:34:59;14.57;;;11.50;;
7160;SDS011;3622;53.576;9.978;2022-08-19T13:37:25;12.90;;;11.40;;
7160;SDS011;3622;53.576;9.978;2022-08-19T13:40:07;19.30;;;11.97;;
7160;SDS011;3622;53.576;9.978;2022-08-19T13:42:39;15.20;;;11.57;;
7160;SDS011;3622;53.576;9.978;2022-08-19T13:45:05;17.93;;;13.13;;
7160;SDS011;3622;53.576;9.978;2022-08-19T13:47:32;13.30;;;11.80;;
7160;SDS011;3622;53.576;9.978;2022-08-19T13:49:59;16.93;;;12.37;;
7160;SDS011;3622;53.576;9.978;2022-08-19T13:52:25;18.00;;;12.10;;
7160;SDS011;3622;53.576;9.978;2022-08-19T13:54:51;14.27;;;11.43;;
7160;SDS011;3622;53.576;9.978;2022-08-19T13:57:18;17.93;;;13.40;;
7160;SDS011;3622;53.576;9.978;2022-08-19T13:59:44;13.43;;;11.73;;
7160;SDS011;3622;53.576;9.978;2022-08-19T14:02:10;13.50;;;12.10;;
7160;SDS011;3622;53.576;9.978;2022-08-19T14:04:36;17.87;;;11.73;;
7160;SDS011;3622;53.576;9.978;2022-08-19T14:07:03;13.33;;;11.90;;
7160;SDS011;3622;53.576;9.978;2022-08-19T14:09:29;13.70;;;12.30;;
7160;SDS011;3622;53.576;9.978;2022-08-19T14:11:55;14.70;;;12.67;;
7160;SDS011;3622;53.576;9.978;2022-08-19T14:14:21;14.47;;;11.90;;
7160;SDS011;3622;53.576;9.978;2022-08-19T14:16:47;17.83;;;12.33;;
7160;SDS011;3622;53.576;9.978;2022-08-19T14:19:13;15.07;;;12.93;;
7160;SDS011;3622;53.576;9.978;2022-08-19T14:21:40;14.97;;;13.37;;
7160;SDS011;3622;53.576;9.978;2022-08-19T14:24:06;17.37;;;13.87;;
7160;SDS011;3622;53.576;9.978;2022-08-19T14:26:33;14.50;;;12.87;;
7160;SDS011;3622;53.576;9.978;2022-08-19T14:28:59;15.77;;;12.97;;
7160;SDS011;3622;53.576;9.978;2022-08-19T14:31:26;13.10;;;11.43;;
7160;SDS011;3622;53.576;9.978;2022-08-19T14:33:52;13.87;;;12.30;;
7160;SDS011;3622;53.576;9.978;2022-08-19T14:36:18;13.67;;;12.20;;
7160;SDS011;3622;53.576;9.978;2022-08-19T14:38:45;15.17;;;13.57;;
7160;SDS011;3622;53.576;9.978;2022-08-19T14:41:13;16.87;;;13.57;;
7160;SDS011;3622;53.576;9.978;2022-08-19T14:43:41;14.87;;;13.00;;
7160;SDS011;3622;53.576;9.978;2022-08-19T14:46:07;16.73;;;13.50;;
7160;SDS011;3622;53.576;9.978;2022-08-19T14:48:35;17.53;;;13.10;;
7160;SDS011;3622;53.576;9.978;2022-08-19T14:51:03;14.30;;;12.80;;
7160;SDS011;3622;53.576;9.978;2022-08-19T14:53:29;16.30;;;14.33;;
7160;SDS011;3622;53.576;9.978;2022-08-19T14:55:55;18.13;;;14.43;;
7160;SDS011;3622;53.576;9.978;2022-08-19T14:58:21;17.30;;;14.33;;
7160;SDS011;3622;53.576;9.978;2022-08-19T15:00:47;19.53;;;16.03;;